sensor_id;sensor_type;location;lat;lon;timestamp;P1;durP1;ratioP1;P2;durP2;ratioP2
39400;SDS011;54391;50.000;7.360;2023-06-01T00:00:23;7.28;;;2.38;;
39400;SDS011;54391;50.000;7.360;2023-06-01T00:02:52;4.40;;;2.10;;
39400;SDS011;54391;50.000;7.360;2023-06-01T00:05:20;3.60;;;2.10;;
39400;SDS011;54391;50.000;7.360;2023-06-01T00:07:47;8.75;;;2.13;;
39400;SDS011;54391;50.000;7.360;2023-06-01T00:10:14;4.45;;;1.95;;
39400;SDS011;54391;50.000;7.360;2023-06-01T00:12:42;7.60;;;2.35;;
39400;SDS011;54391;50.000;7.360;2023-06-01T00:15:09;4.90;;;2.55;;
39400;SDS011;54391;50.000;7.360;2023-06-01T00:17:36;8.63;;;1.95;;
39400;SDS011;54391;50.000;7.360;2023-06-01T00:20:06;3.67;;;1.85;;
39400;SDS011;54391;50.000;7.360;2023-06-01T00:22:34;3.53;;;2.03;;
39400;SDS011;54391;50.000;7.360;2023-06-01T00:25:04;4.68;;;2.08;;
39400;SDS011;54391;50.000;7.360;2023-06-01T00:27:32;5.32;;;2.05;;
39400;SDS011;54391;50.000;7.360;2023-06-01T00:29:59;4.68;;;2.08;;
39400;SDS011;54391;50.000;7.360;2023-06-01T00:32:26;6.38;;;2.35;;
39400;SDS011;54391;50.000;7.360;2023-06-01T00:34:54;5.13;;;2.50;;
39400;SDS011;54391;50.000;7.360;2023-06-01T00:37:23;6.28;;;1.90;;
39400;SDS011;54391;50.000;7.360;2023-06-01T00:39:50;6.25;;;2.63;;
39400;SDS011;54391;50.000;7.360;2023-06-01T00:42:17;6.15;;;2.55;;
39400;SDS011;54391;50.000;7.360;2023-06-01T00:44:44;5.93;;;2.70;;
39400;SDS011;54391;50.000;7.360;2023-06-01T00:47:11;4.18;;;2.20;;
39400;SDS011;54391;50.000;7.360;2023-06-01T00:49:39;5.70;;;2.35;;
39400;SDS011;54391;50.000;7.360;2023-06-01T00:52:06;5.40;;;2.30;;
39400;SDS011;54391;50.000;7.360;2023-06-01T00:54:35;5.15;;;2.15;;
39400;SDS011;54391;50.000;7.360;2023-06-01T00:57:02;6.50;;;2.55;;
39400;SDS011;54391;50.000;7.360;2023-06-01T00:59:31;6.40;;;2.25;;
39400;SDS011;54391;50.000;7.360;2023-06-01T01:01:59;9.77;;;2.55;;
39400;SDS011;54391;50.000;7.360;2023-06-01T01:04:29;5.88;;;2.63;;
39400;SDS011;54391;50.000;7.360;2023-06-01T01:07:00;7.60;;;2.40;;
39400;SDS011;54391;50.000;7.360;2023-06-01T01:09:39;7.45;;;2.38;;
39400;SDS011;54391;50.000;7.360;2023-06-01T01:12:14;5.75;;;2.22;;
39400;SDS011;54391;50.000;7.360;2023-06-01T01:14:54;5.30;;;2.25;;
39400;SDS011;54391;50.000;7.360;2023-06-01T01:17:28;6.63;;;2.80;;
39400;SDS011;54391;50.000;7.360;2023-06-01T01:20:06;8.27;;;3.05;;
39400;SDS011;54391;50.000;7.360;2023-06-01T01:26:12;5.38;;;2.35;;
39400;SDS011;54391;50.000;7.360;2023-06-01T01:28:49;6.00;;;2.60;;
39400;SDS011;54391;50.000;7.360;2023-06-01T01:31:18;5.55;;;2.70;;
39400;SDS011;54391;50.000;7.360;2023-06-01T01:33:53;5.82;;;2.67;;
39400;SDS011;54391;50.000;7.360;2023-06-01T01:36:22;4.78;;;2.50;;
39400;SDS011;54391;50.000;7.360;2023-06-01T01:38:50;7.40;;;2.63;;
39400;SDS011;54391;50.000;7.360;2023-06-01T01:41:17;7.35;;;2.65;;
39400;SDS011;54391;50.000;7.360;2023-06-01T01:43:45;6.03;;;2.47;;
39400;SDS011;54391;50.000;7.360;2023-06-01T01:46:16;9.20;;;2.08;;
39400;SDS011;54391;50.000;7.360;2023-06-01T01:48:54;6.85;;;2.80;;
39400;SDS011;54391;50.000;7.360;2023-06-01T01:51:29;8.02;;;2.65;;
39400;SDS011;54391;50.000;7.360;2023-06-01T01:54:03;7.63;;;2.70;;
39400;SDS011;54391;50.000;7.360;2023-06-01T01:56:33;7.53;;;2.60;;
39400;SDS011;54391;50.000;7.360;2023-06-01T01:59:02;4.47;;;2.40;;
39400;SDS011;54391;50.000;7.360;2023-06-01T02:01:32;6.90;;;2.63;;
39400;SDS011;54391;50.000;7.360;2023-06-01T02:04:00;4.95;;;2.95;;
39400;SDS011;54391;50.000;7.360;2023-06-01T02:06:28;5.78;;;2.50;;
39400;SDS011;54391;50.000;7.360;2023-06-01T02:08:56;5.95;;;2.53;;
39400;SDS011;54391;50.000;7.360;2023-06-01T02:11:23;6.53;;;2.60;;
39400;SDS011;54391;50.000;7.360;2023-06-01T02:13:50;8.50;;;2.92;;
39400;SDS011;54391;50.000;7.360;2023-06-01T02:16:18;6.50;;;2.92;;
39400;SDS011;54391;50.000;7.360;2023-06-01T02:18:48;5.88;;;2.35;;
39400;SDS011;54391;50.000;7.360;2023-06-01T02:21:15;7.20;;;2.55;;
39400;SDS011;54391;50.000;7.360;2023-06-01T02:23:43;5.45;;;2.70;;
39400;SDS011;54391;50.000;7.360;2023-06-01T02:26:11;6.07;;;2.55;;
39400;SDS011;54391;50.000;7.360;2023-06-01T02:28:38;8.05;;;3.00;;
39400;SDS011;54391;50.000;7.360;2023-06-01T02:31:05;7.72;;;2.75;;
39400;SDS011;54391;50.000;7.360;2023-06-01T02:33:33;8.50;;;3.05;;
39400;SDS011;54391;50.000;7.360;2023-06-01T02:36:02;5.97;;;2.60;;
39400;SDS011;54391;50.000;7.360;2023-06-01T02:38:31;3.45;;;2.25;;
39400;SDS011;54391;50.000;7.360;2023-06-01T02:40:58;7.68;;;3.08;;
39400;SDS011;54391;50.000;7.360;2023-06-01T02:43:25;6.05;;;2.70;;
39400;SDS011;54391;50.000;7.360;2023-06-01T02:45:53;10.13;;;2.70;;
39400;SDS011;54391;50.000;7.360;2023-06-01T02:48:20;4.95;;;2.40;;
39400;SDS011;54391;50.000;7.360;2023-06-01T02:50:49;8.32;;;2.78;;
39400;SDS011;54391;50.000;7.360;2023-06-01T02:53:17;8.40;;;2.75;;
39400;SDS011;54391;50.000;7.360;2023-06-01T02:55:45;6.47;;;2.63;;
39400;SDS011;54391;50.000;7.360;2023-06-01T02:58:12;6.45;;;2.63;;
39400;SDS011;54391;50.000;7.360;2023-06-01T03:00:54;6.60;;;2.33;;
39400;SDS011;54391;50.000;7.360;2023-06-01T03:03:24;8.25;;;2.97;;
39400;SDS011;54391;50.000;7.360;2023-06-01T03:05:52;5.90;;;2.65;;
39400;SDS011;54391;50.000;7.360;2023-06-01T03:08:40;7.78;;;3.03;;
39400;SDS011;54391;50.000;7.360;2023-06-01T03:11:24;7.20;;;2.83;;
39400;SDS011;54391;50.000;7.360;2023-06-01T03:13:52;7.93;;;2.75;;
39400;SDS011;54391;50.000;7.360;2023-06-01T03:16:19;4.38;;;2.60;;
39400;SDS011;54391;50.000;7.360;2023-06-01T03:19:01;7.03;;;2.60;;
39400;SDS011;54391;50.000;7.360;2023-06-01T03:21:28;5.35;;;2.90;;
39400;SDS011;54391;50.000;7.360;2023-06-01T03:23:58;6.80;;;2.47;;
39400;SDS011;54391;50.000;7.360;2023-06-01T03:26:25;7.05;;;2.90;;
39400;SDS011;54391;50.000;7.360;2023-06-01T03:28:53;8.82;;;2.92;;
39400;SDS011;54391;50.000;7.360;2023-06-01T03:31:21;7.57;;;3.17;;
39400;SDS011;54391;50.000;7.360;2023-06-01T03:33:50;6.85;;;2.65;;
39400;SDS011;54391;50.000;7.360;2023-06-01T03:36:18;6.95;;;2.95;;
39400;SDS011;54391;50.000;7.360;2023-06-01T03:38:45;10.10;;;3.10;;
39400;SDS011;54391;50.000;7.360;2023-06-01T03:41:14;6.63;;;2.90;;
39400;SDS011;54391;50.000;7.360;2023-06-01T03:43:41;6.55;;;2.30;;
39400;SDS011;54391;50.000;7.360;2023-06-01T03:46:09;5.43;;;2.55;;
39400;SDS011;54391;50.000;7.360;2023-06-01T03:48:36;4.97;;;2.70;;
39400;SDS011;54391;50.000;7.360;2023-06-01T03:51:03;5.47;;;2.42;;
39400;SDS011;54391;50.000;7.360;2023-06-01T03:53:31;8.13;;;2.92;;
39400;SDS011;54391;50.000;7.360;2023-06-01T03:55:59;7.15;;;2.75;;
39400;SDS011;54391;50.000;7.360;2023-06-01T03:58:40;7.60;;;3.13;;
39400;SDS011;54391;50.000;7.360;2023-06-01T04:01:08;5.22;;;2.63;;
39400;SDS011;54391;50.000;7.360;2023-06-01T04:03:37;6.43;;;3.30;;
39400;SDS011;54391;50.000;7.360;2023-06-01T04:06:04;7.72;;;2.65;;
39400;SDS011;54391;50.000;7.360;2023-06-01T04:11:13;6.10;;;2.78;;
39400;SDS011;54391;50.000;7.360;2023-06-01T04:13:43;5.40;;;2.88;;
39400;SDS011;54391;50.000;7.360;2023-06-01T04:16:10;9.00;;;2.70;;
39400;SDS011;54391;50.000;7.360;2023-06-01T04:18:39;5.95;;;2.70;;
39400;SDS011;54391;50.000;7.360;2023-06-01T04:21:12;7.93;;;2.65;;
39400;SDS011;54391;50.000;7.360;2023-06-01T04:23:40;6.78;;;2.75;;
39400;SDS011;54391;50.000;7.360;2023-06-01T04:26:10;12.95;;;3.05;;
39400;SDS011;54391;50.000;7.360;2023-06-01T04:28:37;6.05;;;2.70;;
39400;SDS011;54391;50.000;7.360;2023-06-01T04:31:10;4.93;;;2.70;;
39400;SDS011;54391;50.000;7.360;2023-06-01T04:33:43;8.20;;;2.83;;
39400;SDS011;54391;50.000;7.360;2023-06-01T04:36:12;7.47;;;2.75;;
39400;SDS011;54391;50.000;7.360;2023-06-01T04:38:40;7.28;;;2.80;;
39400;SDS011;54391;50.000;7.360;2023-06-01T04:41:08;5.85;;;2.95;;
39400;SDS011;54391;50.000;7.360;2023-06-01T04:43:36;6.10;;;3.05;;
39400;SDS011;54391;50.000;7.360;2023-06-01T04:46:05;7.60;;;2.60;;
39400;SDS011;54391;50.000;7.360;2023-06-01T04:48:34;7.78;;;3.15;;
39400;SDS011;54391;50.000;7.360;2023-06-01T04:51:03;6.70;;;3.22;;
39400;SDS011;54391;50.000;7.360;2023-06-01T04:53:30;4.95;;;2.80;;
39400;SDS011;54391;50.000;7.360;2023-06-01T04:55:57;4.25;;;2.67;;
39400;SDS011;54391;50.000;7.360;2023-06-01T04:58:25;7.22;;;2.92;;
39400;SDS011;54391;50.000;7.360;2023-06-01T05:00:52;5.10;;;2.78;;
39400;SDS011;54391;50.000;7.360;2023-06-01T05:03:21;10.63;;;3.10;;
39400;SDS011;54391;50.000;7.360;2023-06-01T05:05:49;6.13;;;3.05;;
39400;SDS011;54391;50.000;7.360;2023-06-01T05:08:17;5.70;;;3.03;;
39400;SDS011;54391;50.000;7.360;2023-06-01T05:10:44;5.75;;;2.80;;
39400;SDS011;54391;50.000;7.360;2023-06-01T05:13:11;5.53;;;2.78;;
39400;SDS011;54391;50.000;7.360;2023-06-01T05:15:39;7.32;;;2.60;;
39400;SDS011;54391;50.000;7.360;2023-06-01T05:18:06;8.13;;;3.42;;
39400;SDS011;54391;50.000;7.360;2023-06-01T05:20:34;5.57;;;3.35;;
39400;SDS011;54391;50.000;7.360;2023-06-01T05:23:02;5.68;;;2.85;;
39400;SDS011;54391;50.000;7.360;2023-06-01T05:25:29;5.15;;;3.00;;
39400;SDS011;54391;50.000;7.360;2023-06-01T05:27:57;8.60;;;3.03;;
39400;SDS011;54391;50.000;7.360;2023-06-01T05:30:25;6.82;;;2.65;;
39400;SDS011;54391;50.000;7.360;2023-06-01T05:32:53;5.28;;;2.88;;
39400;SDS011;54391;50.000;7.360;2023-06-01T05:35:21;11.20;;;3.47;;
39400;SDS011;54391;50.000;7.360;2023-06-01T05:37:50;7.35;;;2.80;;
39400;SDS011;54391;50.000;7.360;2023-06-01T05:40:18;7.53;;;3.17;;
39400;SDS011;54391;50.000;7.360;2023-06-01T05:45:40;5.70;;;2.75;;
39400;SDS011;54391;50.000;7.360;2023-06-01T05:48:08;4.40;;;2.88;;
39400;SDS011;54391;50.000;7.360;2023-06-01T05:50:39;6.40;;;2.33;;
39400;SDS011;54391;50.000;7.360;2023-06-01T05:53:07;4.15;;;2.33;;
39400;SDS011;54391;50.000;7.360;2023-06-01T05:55:36;8.00;;;2.65;;
39400;SDS011;54391;50.000;7.360;2023-06-01T05:58:03;8.23;;;2.47;;
39400;SDS011;54391;50.000;7.360;2023-06-01T06:00:32;7.75;;;2.95;;
39400;SDS011;54391;50.000;7.360;2023-06-01T06:03:00;6.43;;;3.10;;
39400;SDS011;54391;50.000;7.360;2023-06-01T06:05:29;5.60;;;2.53;;
39400;SDS011;54391;50.000;7.360;2023-06-01T06:07:56;16.73;;;4.57;;
39400;SDS011;54391;50.000;7.360;2023-06-01T06:10:23;7.25;;;2.55;;
39400;SDS011;54391;50.000;7.360;2023-06-01T06:12:52;4.57;;;2.20;;
39400;SDS011;54391;50.000;7.360;2023-06-01T06:15:20;6.97;;;2.20;;
39400;SDS011;54391;50.000;7.360;2023-06-01T06:17:47;15.05;;;5.60;;
39400;SDS011;54391;50.000;7.360;2023-06-01T06:20:14;41.22;;;9.45;;
39400;SDS011;54391;50.000;7.360;2023-06-01T06:22:41;23.40;;;5.40;;
39400;SDS011;54391;50.000;7.360;2023-06-01T06:25:09;10.75;;;2.75;;
39400;SDS011;54391;50.000;7.360;2023-06-01T06:27:37;8.77;;;3.67;;
39400;SDS011;54391;50.000;7.360;2023-06-01T06:30:07;17.38;;;3.55;;
39400;SDS011;54391;50.000;7.360;2023-06-01T06:32:34;5.82;;;2.78;;
39400;SDS011;54391;50.000;7.360;2023-06-01T06:35:02;16.20;;;4.93;;
39400;SDS011;54391;50.000;7.360;2023-06-01T06:37:29;29.13;;;6.43;;
39400;SDS011;54391;50.000;7.360;2023-06-01T06:39:56;18.58;;;4.75;;
39400;SDS011;54391;50.000;7.360;2023-06-01T06:42:24;5.90;;;3.05;;
39400;SDS011;54391;50.000;7.360;2023-06-01T06:44:51;7.65;;;2.60;;
39400;SDS011;54391;50.000;7.360;2023-06-01T06:47:19;4.82;;;2.67;;
39400;SDS011;54391;50.000;7.360;2023-06-01T06:49:46;7.20;;;2.90;;
39400;SDS011;54391;50.000;7.360;2023-06-01T06:52:14;8.90;;;2.83;;
39400;SDS011;54391;50.000;7.360;2023-06-01T06:54:41;9.07;;;3.15;;
39400;SDS011;54391;50.000;7.360;2023-06-01T06:57:08;11.43;;;4.38;;
39400;SDS011;54391;50.000;7.360;2023-06-01T06:59:35;6.55;;;2.75;;
39400;SDS011;54391;50.000;7.360;2023-06-01T07:02:03;8.50;;;3.08;;
39400;SDS011;54391;50.000;7.360;2023-06-01T07:04:32;15.60;;;3.78;;
39400;SDS011;54391;50.000;7.360;2023-06-01T07:06:59;6.68;;;2.67;;
39400;SDS011;54391;50.000;7.360;2023-06-01T07:09:29;7.55;;;3.10;;
39400;SDS011;54391;50.000;7.360;2023-06-01T07:11:56;7.28;;;2.97;;
39400;SDS011;54391;50.000;7.360;2023-06-01T07:14:24;9.70;;;3.20;;
39400;SDS011;54391;50.000;7.360;2023-06-01T07:16:51;12.05;;;3.13;;
39400;SDS011;54391;50.000;7.360;2023-06-01T07:19:18;6.43;;;3.05;;
39400;SDS011;54391;50.000;7.360;2023-06-01T07:21:46;8.05;;;2.80;;
39400;SDS011;54391;50.000;7.360;2023-06-01T07:24:13;17.88;;;5.88;;
39400;SDS011;54391;50.000;7.360;2023-06-01T07:26:43;15.13;;;4.05;;
39400;SDS011;54391;50.000;7.360;2023-06-01T07:29:11;32.72;;;6.22;;
39400;SDS011;54391;50.000;7.360;2023-06-01T07:31:40;11.55;;;3.50;;
39400;SDS011;54391;50.000;7.360;2023-06-01T07:34:07;5.00;;;2.55;;
39400;SDS011;54391;50.000;7.360;2023-06-01T07:36:34;5.10;;;2.90;;
39400;SDS011;54391;50.000;7.360;2023-06-01T07:39:05;10.45;;;3.05;;
39400;SDS011;54391;50.000;7.360;2023-06-01T07:41:34;4.30;;;2.50;;
39400;SDS011;54391;50.000;7.360;2023-06-01T07:44:02;6.00;;;2.83;;
39400;SDS011;54391;50.000;7.360;2023-06-01T07:46:29;20.80;;;7.30;;
39400;SDS011;54391;50.000;7.360;2023-06-01T07:48:56;15.75;;;3.72;;
39400;SDS011;54391;50.000;7.360;2023-06-01T07:51:24;7.38;;;3.03;;
39400;SDS011;54391;50.000;7.360;2023-06-01T07:53:51;7.07;;;2.67;;
39400;SDS011;54391;50.000;7.360;2023-06-01T07:56:24;16.40;;;3.22;;
39400;SDS011;54391;50.000;7.360;2023-06-01T07:58:52;6.60;;;2.80;;
39400;SDS011;54391;50.000;7.360;2023-06-01T08:01:19;5.82;;;2.72;;
39400;SDS011;54391;50.000;7.360;2023-06-01T08:03:46;6.28;;;2.78;;
39400;SDS011;54391;50.000;7.360;2023-06-01T08:06:14;4.60;;;2.78;;
39400;SDS011;54391;50.000;7.360;2023-06-01T08:08:41;20.52;;;5.05;;
39400;SDS011;54391;50.000;7.360;2023-06-01T08:11:08;17.77;;;4.43;;
39400;SDS011;54391;50.000;7.360;2023-06-01T08:13:37;6.15;;;3.22;;
39400;SDS011;54391;50.000;7.360;2023-06-01T08:16:04;8.20;;;3.75;;
39400;SDS011;54391;50.000;7.360;2023-06-01T08:18:32;16.33;;;3.80;;
39400;SDS011;54391;50.000;7.360;2023-06-01T08:20:59;11.70;;;3.75;;
39400;SDS011;54391;50.000;7.360;2023-06-01T08:23:27;6.78;;;3.28;;
39400;SDS011;54391;50.000;7.360;2023-06-01T08:25:54;5.13;;;3.10;;
39400;SDS011;54391;50.000;7.360;2023-06-01T08:28:21;6.65;;;2.70;;
39400;SDS011;54391;50.000;7.360;2023-06-01T08:30:50;12.18;;;3.00;;
39400;SDS011;54391;50.000;7.360;2023-06-01T08:33:17;7.43;;;2.50;;
39400;SDS011;54391;50.000;7.360;2023-06-01T08:35:45;5.13;;;2.60;;
39400;SDS011;54391;50.000;7.360;2023-06-01T08:38:12;7.82;;;2.90;;
39400;SDS011;54391;50.000;7.360;2023-06-01T08:40:39;23.92;;;6.28;;
39400;SDS011;54391;50.000;7.360;2023-06-01T08:43:09;17.52;;;4.40;;
39400;SDS011;54391;50.000;7.360;2023-06-01T08:45:40;7.22;;;2.63;;
39400;SDS011;54391;50.000;7.360;2023-06-01T08:48:08;6.82;;;2.75;;
39400;SDS011;54391;50.000;7.360;2023-06-01T08:50:40;6.00;;;2.58;;
39400;SDS011;54391;50.000;7.360;2023-06-01T08:53:08;5.95;;;2.67;;
39400;SDS011;54391;50.000;7.360;2023-06-01T08:55:35;6.03;;;2.40;;
39400;SDS011;54391;50.000;7.360;2023-06-01T08:58:03;4.88;;;2.90;;
39400;SDS011;54391;50.000;7.360;2023-06-01T09:00:31;12.05;;;4.00;;
39400;SDS011;54391;50.000;7.360;2023-06-01T09:02:58;4.22;;;2.60;;
39400;SDS011;54391;50.000;7.360;2023-06-01T09:05:29;5.60;;;2.72;;
39400;SDS011;54391;50.000;7.360;2023-06-01T09:07:56;16.10;;;4.47;;
39400;SDS011;54391;50.000;7.360;2023-06-01T09:10:23;21.05;;;4.82;;
39400;SDS011;54391;50.000;7.360;2023-06-01T09:12:52;8.35;;;2.72;;
39400;SDS011;54391;50.000;7.360;2023-06-01T09:15:20;5.63;;;2.45;;
39400;SDS011;54391;50.000;7.360;2023-06-01T09:17:48;9.63;;;2.92;;
39400;SDS011;54391;50.000;7.360;2023-06-01T09:20:22;9.13;;;2.90;;
39400;SDS011;54391;50.000;7.360;2023-06-01T09:22:51;5.38;;;2.30;;
39400;SDS011;54391;50.000;7.360;2023-06-01T09:25:23;21.63;;;4.43;;
39400;SDS011;54391;50.000;7.360;2023-06-01T09:27:52;7.55;;;3.00;;
39400;SDS011;54391;50.000;7.360;2023-06-01T09:30:22;7.75;;;2.72;;
39400;SDS011;54391;50.000;7.360;2023-06-01T09:32:50;7.25;;;2.88;;
39400;SDS011;54391;50.000;7.360;2023-06-01T09:35:37;11.80;;;2.70;;
39400;SDS011;54391;50.000;7.360;2023-06-01T09:38:08;5.63;;;2.72;;
39400;SDS011;54391;50.000;7.360;2023-06-01T09:40:37;7.45;;;1.98;;
39400;SDS011;54391;50.000;7.360;2023-06-01T09:43:20;7.10;;;1.92;;
39400;SDS011;54391;50.000;7.360;2023-06-01T09:46:04;5.20;;;2.25;;
39400;SDS011;54391;50.000;7.360;2023-06-01T09:48:32;7.03;;;3.08;;
39400;SDS011;54391;50.000;7.360;2023-06-01T09:50:59;4.68;;;2.40;;
39400;SDS011;54391;50.000;7.360;2023-06-01T09:53:38;5.50;;;2.58;;
39400;SDS011;54391;50.000;7.360;2023-06-01T09:56:06;5.20;;;2.28;;
39400;SDS011;54391;50.000;7.360;2023-06-01T09:58:34;21.77;;;4.50;;
39400;SDS011;54391;50.000;7.360;2023-06-01T10:01:04;4.40;;;2.65;;
39400;SDS011;54391;50.000;7.360;2023-06-01T10:03:33;7.00;;;2.70;;
39400;SDS011;54391;50.000;7.360;2023-06-01T10:06:01;9.73;;;3.30;;
39400;SDS011;54391;50.000;7.360;2023-06-01T10:08:30;12.88;;;3.60;;
39400;SDS011;54391;50.000;7.360;2023-06-01T10:10:59;7.43;;;2.80;;
39400;SDS011;54391;50.000;7.360;2023-06-01T10:13:27;6.45;;;2.75;;
39400;SDS011;54391;50.000;7.360;2023-06-01T10:15:56;4.72;;;2.53;;
39400;SDS011;54391;50.000;7.360;2023-06-01T10:18:23;3.97;;;2.35;;
39400;SDS011;54391;50.000;7.360;2023-06-01T10:20:51;17.40;;;3.85;;
39400;SDS011;54391;50.000;7.360;2023-06-01T10:23:19;10.88;;;2.83;;
39400;SDS011;54391;50.000;7.360;2023-06-01T10:25:48;19.05;;;4.15;;
39400;SDS011;54391;50.000;7.360;2023-06-01T10:28:17;11.80;;;3.40;;
39400;SDS011;54391;50.000;7.360;2023-06-01T10:30:45;8.90;;;2.80;;
39400;SDS011;54391;50.000;7.360;2023-06-01T10:33:13;4.50;;;2.63;;
39400;SDS011;54391;50.000;7.360;2023-06-01T10:38:29;8.73;;;3.17;;
39400;SDS011;54391;50.000;7.360;2023-06-01T10:43:55;7.85;;;3.10;;
39400;SDS011;54391;50.000;7.360;2023-06-01T10:46:35;15.57;;;3.78;;
39400;SDS011;54391;50.000;7.360;2023-06-01T10:49:07;16.23;;;2.90;;
39400;SDS011;54391;50.000;7.360;2023-06-01T10:51:35;11.55;;;3.10;;
39400;SDS011;54391;50.000;7.360;2023-06-01T11:02:43;6.88;;;2.47;;
39400;SDS011;54391;50.000;7.360;2023-06-01T11:11:17;6.55;;;3.30;;
39400;SDS011;54391;50.000;7.360;2023-06-01T11:14:07;8.35;;;2.70;;
39400;SDS011;54391;50.000;7.360;2023-06-01T11:16:36;8.13;;;2.50;;
39400;SDS011;54391;50.000;7.360;2023-06-01T11:19:04;6.45;;;2.70;;
39400;SDS011;54391;50.000;7.360;2023-06-01T11:21:33;6.38;;;2.83;;
39400;SDS011;54391;50.000;7.360;2023-06-01T11:24:06;5.32;;;3.03;;
39400;SDS011;54391;50.000;7.360;2023-06-01T11:26:36;5.93;;;2.83;;
39400;SDS011;54391;50.000;7.360;2023-06-01T11:29:10;5.20;;;2.65;;
39400;SDS011;54391;50.000;7.360;2023-06-01T11:31:39;6.07;;;2.75;;
39400;SDS011;54391;50.000;7.360;2023-06-01T11:34:09;7.03;;;2.30;;
39400;SDS011;54391;50.000;7.360;2023-06-01T11:36:37;7.57;;;3.20;;
39400;SDS011;54391;50.000;7.360;2023-06-01T11:39:15;6.00;;;2.50;;
39400;SDS011;54391;50.000;7.360;2023-06-01T11:41:48;6.07;;;2.88;;
39400;SDS011;54391;50.000;7.360;2023-06-01T11:44:20;11.68;;;2.85;;
39400;SDS011;54391;50.000;7.360;2023-06-01T11:46:52;6.50;;;2.63;;
39400;SDS011;54391;50.000;7.360;2023-06-01T11:49:20;8.07;;;2.83;;
39400;SDS011;54391;50.000;7.360;2023-06-01T11:51:47;5.22;;;2.97;;
39400;SDS011;54391;50.000;7.360;2023-06-01T11:54:16;6.80;;;2.75;;
39400;SDS011;54391;50.000;7.360;2023-06-01T11:56:49;6.38;;;2.50;;
39400;SDS011;54391;50.000;7.360;2023-06-01T11:59:17;6.53;;;2.80;;
39400;SDS011;54391;50.000;7.360;2023-06-01T12:01:46;6.78;;;3.45;;
39400;SDS011;54391;50.000;7.360;2023-06-01T12:04:15;8.70;;;3.28;;
39400;SDS011;54391;50.000;7.360;2023-06-01T12:06:43;7.05;;;3.05;;
39400;SDS011;54391;50.000;7.360;2023-06-01T12:09:11;10.95;;;3.03;;
39400;SDS011;54391;50.000;7.360;2023-06-01T12:11:40;10.63;;;2.95;;
39400;SDS011;54391;50.000;7.360;2023-06-01T12:14:09;9.55;;;2.95;;
39400;SDS011;54391;50.000;7.360;2023-06-01T12:16:54;10.82;;;3.83;;
39400;SDS011;54391;50.000;7.360;2023-06-01T12:19:23;5.68;;;3.60;;
39400;SDS011;54391;50.000;7.360;2023-06-01T12:21:52;8.13;;;3.90;;
39400;SDS011;54391;50.000;7.360;2023-06-01T12:24:27;13.55;;;4.57;;
39400;SDS011;54391;50.000;7.360;2023-06-01T12:26:56;14.23;;;4.28;;
39400;SDS011;54391;50.000;7.360;2023-06-01T12:29:34;9.68;;;4.55;;
39400;SDS011;54391;50.000;7.360;2023-06-01T12:32:07;11.95;;;4.63;;
39400;SDS011;54391;50.000;7.360;2023-06-01T12:34:35;13.95;;;5.43;;
39400;SDS011;54391;50.000;7.360;2023-06-01T12:37:15;11.43;;;5.95;;
39400;SDS011;54391;50.000;7.360;2023-06-01T12:39:43;10.35;;;5.50;;
39400;SDS011;54391;50.000;7.360;2023-06-01T12:42:17;13.85;;;5.82;;
39400;SDS011;54391;50.000;7.360;2023-06-01T12:44:51;15.85;;;5.90;;
39400;SDS011;54391;50.000;7.360;2023-06-01T12:47:21;15.88;;;6.13;;
39400;SDS011;54391;50.000;7.360;2023-06-01T12:50:01;9.73;;;5.72;;
39400;SDS011;54391;50.000;7.360;2023-06-01T12:52:30;19.25;;;7.43;;
39400;SDS011;54391;50.000;7.360;2023-06-01T12:54:57;15.38;;;5.13;;
39400;SDS011;54391;50.000;7.360;2023-06-01T12:57:24;14.85;;;6.32;;
39400;SDS011;54391;50.000;7.360;2023-06-01T12:59:51;9.65;;;5.57;;
39400;SDS011;54391;50.000;7.360;2023-06-01T13:02:18;15.82;;;8.15;;
39400;SDS011;54391;50.000;7.360;2023-06-01T13:04:47;10.90;;;5.25;;
39400;SDS011;54391;50.000;7.360;2023-06-01T13:07:15;15.75;;;5.82;;
39400;SDS011;54391;50.000;7.360;2023-06-01T13:09:42;9.70;;;5.95;;
39400;SDS011;54391;50.000;7.360;2023-06-01T13:12:09;9.32;;;5.72;;
39400;SDS011;54391;50.000;7.360;2023-06-01T13:14:37;12.32;;;6.55;;
39400;SDS011;54391;50.000;7.360;2023-06-01T13:17:04;11.70;;;7.10;;
39400;SDS011;54391;50.000;7.360;2023-06-01T13:19:32;12.65;;;6.90;;
39400;SDS011;54391;50.000;7.360;2023-06-01T13:22:01;19.88;;;7.10;;
39400;SDS011;54391;50.000;7.360;2023-06-01T13:24:28;16.17;;;7.55;;
39400;SDS011;54391;50.000;7.360;2023-06-01T13:26:55;13.05;;;6.97;;
39400;SDS011;54391;50.000;7.360;2023-06-01T13:29:23;10.18;;;6.97;;
39400;SDS011;54391;50.000;7.360;2023-06-01T13:31:50;13.32;;;7.50;;
39400;SDS011;54391;50.000;7.360;2023-06-01T13:34:17;11.70;;;6.53;;
39400;SDS011;54391;50.000;7.360;2023-06-01T13:36:46;11.95;;;5.93;;
39400;SDS011;54391;50.000;7.360;2023-06-01T13:39:15;9.75;;;5.88;;
39400;SDS011;54391;50.000;7.360;2023-06-01T13:41:42;9.45;;;5.28;;
39400;SDS011;54391;50.000;7.360;2023-06-01T13:44:10;11.07;;;6.00;;
39400;SDS011;54391;50.000;7.360;2023-06-01T13:46:37;13.88;;;6.35;;
39400;SDS011;54391;50.000;7.360;2023-06-01T13:49:04;11.40;;;6.82;;
39400;SDS011;54391;50.000;7.360;2023-06-01T13:51:32;12.95;;;7.68;;
39400;SDS011;54391;50.000;7.360;2023-06-01T13:54:00;14.52;;;8.68;;
39400;SDS011;54391;50.000;7.360;2023-06-01T13:56:29;11.48;;;8.02;;
39400;SDS011;54391;50.000;7.360;2023-06-01T13:58:56;19.73;;;10.00;;
39400;SDS011;54391;50.000;7.360;2023-06-01T14:01:23;19.52;;;11.05;;
39400;SDS011;54391;50.000;7.360;2023-06-01T14:03:51;19.23;;;11.13;;
39400;SDS011;54391;50.000;7.360;2023-06-01T14:06:18;22.45;;;10.75;;
39400;SDS011;54391;50.000;7.360;2023-06-01T14:08:46;17.92;;;9.70;;
39400;SDS011;54391;50.000;7.360;2023-06-01T14:11:14;22.17;;;10.48;;
39400;SDS011;54391;50.000;7.360;2023-06-01T14:13:42;20.65;;;11.05;;
39400;SDS011;54391;50.000;7.360;2023-06-01T14:16:10;26.23;;;12.25;;
39400;SDS011;54391;50.000;7.360;2023-06-01T14:18:39;19.23;;;11.07;;
39400;SDS011;54391;50.000;7.360;2023-06-01T14:21:06;19.40;;;10.95;;
39400;SDS011;54391;50.000;7.360;2023-06-01T14:23:33;21.05;;;11.60;;
39400;SDS011;54391;50.000;7.360;2023-06-01T14:26:01;26.02;;;11.95;;
39400;SDS011;54391;50.000;7.360;2023-06-01T14:28:28;19.10;;;12.45;;
39400;SDS011;54391;50.000;7.360;2023-06-01T14:30:57;22.20;;;12.95;;
39400;SDS011;54391;50.000;7.360;2023-06-01T14:33:24;23.33;;;12.63;;
39400;SDS011;54391;50.000;7.360;2023-06-01T14:35:52;28.33;;;12.95;;
39400;SDS011;54391;50.000;7.360;2023-06-01T14:38:19;23.50;;;12.88;;
39400;SDS011;54391;50.000;7.360;2023-06-01T14:40:46;21.23;;;13.02;;
39400;SDS011;54391;50.000;7.360;2023-06-01T14:43:14;27.92;;;13.40;;
39400;SDS011;54391;50.000;7.360;2023-06-01T14:45:41;23.85;;;12.68;;
39400;SDS011;54391;50.000;7.360;2023-06-01T14:48:10;27.48;;;14.18;;
39400;SDS011;54391;50.000;7.360;2023-06-01T14:50:37;24.33;;;13.38;;
39400;SDS011;54391;50.000;7.360;2023-06-01T14:53:04;25.83;;;13.48;;
39400;SDS011;54391;50.000;7.360;2023-06-01T14:55:32;23.63;;;11.13;;
39400;SDS011;54391;50.000;7.360;2023-06-01T14:58:00;18.48;;;10.10;;
39400;SDS011;54391;50.000;7.360;2023-06-01T15:00:27;17.90;;;11.15;;
39400;SDS011;54391;50.000;7.360;2023-06-01T15:02:54;30.58;;;11.70;;
39400;SDS011;54391;50.000;7.360;2023-06-01T15:05:23;21.83;;;12.23;;
39400;SDS011;54391;50.000;7.360;2023-06-01T15:07:50;19.05;;;12.15;;
39400;SDS011;54391;50.000;7.360;2023-06-01T15:10:17;21.13;;;12.88;;
39400;SDS011;54391;50.000;7.360;2023-06-01T15:12:45;24.10;;;12.23;;
39400;SDS011;54391;50.000;7.360;2023-06-01T15:15:12;18.45;;;10.50;;
39400;SDS011;54391;50.000;7.360;2023-06-01T15:17:40;15.25;;;9.43;;
39400;SDS011;54391;50.000;7.360;2023-06-01T15:20:07;12.77;;;8.80;;
39400;SDS011;54391;50.000;7.360;2023-06-01T15:22:36;14.75;;;8.48;;